Aérodrome :
LOGIN :

S'inscrire | Disclaimer

   EN    FR    IT 

 










Légende :    VFR   VFR Marginal   IFR   IFR Intensif   IFR Très Intensif
Visi : 
Plafond : 
>= 8 km
>= 3000ft
5 à 8 km
1000 à 3000 ft
1500m à 5 km
500 à 1000 ft
800 à 1500m
200 à 500 ft
< 800m
< 200 ft
Symboles :   Orages  Brouillard  Fortes neiges  Fortes précipitations  Vent > 20 kt
SIGMETs :   Divers  Orages  Givrage  Turbulence  Onde Orograph.  Cendres Volcan.







- Altitude de l'aérodrome : 265 ft
- Code IATA : BJY


LYBT - Batajnica Air Base

DERNIER METAR :
  • 221730Z 05007KT 8000 -SN BKN020 M00/M01 Q1007 NOSIG

METARs EXPIRÉS :
  • 221700Z 06008KT 9999 -SN BKN020 M00/M01 Q1008 NOSIG
  • 221630Z 06009KT 9999 -SN BKN017 M00/M01 Q1008 NOSIG
  • 221600Z 05008KT 020V080 9999 -SN BKN017 M00/M01 Q1008 NOSIG
  • 221530Z 05008KT 5000 -SN BR BKN017 M00/M01 Q1008 RESN NOSIG
  • 221500Z 06007KT 2000 SN BR BKN017 M00/M01 Q1009 NOSIG

TAF TAF LYBT
Valide du 22 à 18h jusqu'au 23 à 18h UTC


221700Z 2218/2318 09005KT 7000 SCT015 BKN027 TX02/2312Z TNM01/2306Z
TEMPO 2218/2302 2000 -SN BKN010 OVC023
BECMG 2303/2305 2000 BR
TEMPO 2304/2308 0400 FZFG
TEMPO 2310/2316 4000
Pas de NOTAMs connus pour ce terrain.



MET'MAP, la Météo Aéronautique d'un coup d'oeil ! - Copyright ORBIFLY Décembre 2007 - Disclaimer

ORBIFLY MET'MAP TEAM :

Programmation & Développement : Alexandra Zaïnal
Conception & Développement : Baudouin d'Aumeries
Co-Programmation & Développement : Marc-Olivier Méhu
Soutien technique & logistique : Manuel Goepfert

Contact : metmap@orbifly.com




SOURCES & CREDITS :

   NOAA